Terminal Aerodrome Forecast
Issued by NWS Twin Cities, MN

Home | Current Version | Previous Version | Graphics & Text | Print | Product List | Glossary On
Versions: 1 2 3 4 5 6 7 8 9 10 11 12 13 14 15 16 17 18 19 20
377
FTUS43 KMPX 052335
TAFEAU
TAF
KEAU 052335Z 0600/0624 19006KT P6SM OVC070
     FM060100 20007KT P6SM VCSH OVC060
     FM060500 22006KT P6SM OVC025
     FM061400 20007KT P6SM OVC100=

USA.gov is the U.S. government's official web portal to all federal, state and local government web resources and services.